Time;durP1;ratioP1;P1;durP2;ratioP2;P2;SDS_P1;SDS_P2;PMS_P1;PMS_P2;Temp;Humidity;BMP_temperature;BMP_pressure;BME280_temperature;BME280_humidity;BME280_pressure;Samples;Min_cycle;Max_cycle;Signal;HPM_P1;HPM_P2
2023/03/18 00:00:42;;;;;;;;;11.00;11.00;;;;;16.47;100.00;100642.34;4978378;28;45371;-78
2023/03/18 00:03:09;;;;;;;;;15.00;12.00;;;;;16.49;100.00;100648.50;4965564;28;45638;-78
2023/03/18 00:05:35;;;;;;;;;14.00;14.00;;;;;16.53;100.00;100652.56;4963089;28;46956;-79
2023/03/18 00:08:01;;;;;;;;;13.00;12.00;;;;;16.54;100.00;100648.78;4999221;28;46125;-79
2023/03/18 00:10:27;;;;;;;;;13.00;11.67;;;;;16.40;100.00;100646.03;4982987;28;45235;-78
2023/03/18 00:12:53;;;;;;;;;13.00;12.00;;;;;16.46;100.00;100653.50;4969081;28;45432;-78
2023/03/18 00:15:19;;;;;;;;;17.00;14.67;;;;;16.45;100.00;100666.38;4981784;28;46981;-79
2023/03/18 00:17:47;;;;;;;;;15.67;13.33;;;;;16.33;100.00;100657.78;4966248;28;45486;-78
2023/03/18 00:20:15;;;;;;;;;19.33;13.67;;;;;16.43;100.00;100662.13;4973140;28;45418;-80
2023/03/18 00:22:42;;;;;;;;;16.00;13.67;;;;;16.32;100.00;100656.06;4967588;28;45566;-80
2023/03/18 00:25:10;;;;;;;;;18.00;13.67;;;;;16.35;100.00;100661.19;4973291;28;46537;-78
2023/03/18 00:27:36;;;;;;;;;15.00;15.00;;;;;16.25;100.00;100637.81;4965276;28;45459;-78
2023/03/18 00:30:04;;;;;;;;;13.67;13.67;;;;;16.31;100.00;100654.34;4962243;28;45456;-78
2023/03/18 00:32:30;;;;;;;;;18.33;15.33;;;;;16.31;100.00;100661.72;4964544;28;45349;-79
2023/03/18 00:34:56;;;;;;;;;18.33;16.33;;;;;16.18;100.00;100648.69;4978433;28;47118;-79
2023/03/18 00:37:29;;;;;;;;;17.67;15.00;;;;;16.17;100.00;100666.16;4966817;28;45291;-79
2023/03/18 00:39:57;;;;;;;;;17.33;16.00;;;;;16.16;100.00;100682.78;4975968;28;45417;-80
2023/03/18 00:42:23;;;;;;;;;19.33;15.67;;;;;16.16;100.00;100678.16;4972244;28;45335;-78
2023/03/18 00:44:48;;;;;;;;;20.33;16.00;;;;;16.09;100.00;100681.81;4975313;28;46234;-77
2023/03/18 00:47:14;;;;;;;;;16.33;14.67;;;;;16.04;100.00;100674.16;4975181;28;45395;-80
2023/03/18 00:49:39;;;;;;;;;19.00;17.00;;;;;16.11;100.00;100675.13;4981613;28;45309;-77
2023/03/18 00:52:05;;;;;;;;;23.00;17.00;;;;;15.99;100.00;100662.91;4972977;28;45945;-78
2023/03/18 00:54:30;;;;;;;;;19.00;18.33;;;;;16.04;100.00;100663.22;4998145;28;46527;-77
2023/03/18 00:56:56;;;;;;;;;18.67;18.67;;;;;16.11;100.00;100668.78;4965945;28;50821;-78
2023/03/18 00:59:22;;;;;;;;;22.67;19.67;;;;;16.05;100.00;100658.59;4982548;28;45365;-78
2023/03/18 01:01:48;;;;;;;;;14.00;14.00;;;;;15.98;100.00;100661.22;4965684;28;45626;-78
2023/03/18 01:04:13;;;;;;;;;18.00;14.67;;;;;15.98;100.00;100660.38;4967125;28;46317;-78
2023/03/18 01:06:38;;;;;;;;;21.00;18.00;;;;;15.94;100.00;100668.94;4969381;28;45416;-77
2023/03/18 01:09:07;;;;;;;;;15.67;14.33;;;;;15.99;100.00;100664.81;4975300;28;45395;-78
2023/03/18 01:11:33;;;;;;;;;18.67;18.67;;;;;15.92;100.00;100662.81;4977604;28;45287;-79
2023/03/18 01:14:00;;;;;;;;;17.33;16.33;;;;;15.95;100.00;100664.31;4965273;28;47214;-79
2023/03/18 01:16:25;;;;;;;;;15.00;13.67;;;;;15.83;100.00;100660.31;4976497;28;45492;-79
2023/03/18 01:18:52;;;;;;;;;19.33;14.33;;;;;15.86;100.00;100670.88;4998648;28;45399;-79
2023/03/18 01:21:18;;;;;;;;;19.67;19.33;;;;;15.70;100.00;100660.09;5010759;28;46399;-79
2023/03/18 01:23:43;;;;;;;;;15.00;11.33;;;;;15.75;100.00;100655.75;4999669;28;47508;-79
2023/03/18 01:26:09;;;;;;;;;17.67;16.67;;;;;15.82;100.00;100658.63;4979042;28;45496;-79
2023/03/18 01:28:35;;;;;;;;;17.33;14.00;;;;;15.76;100.00;100648.41;4977385;28;45406;-79
2023/03/18 01:31:01;;;;;;;;;14.00;13.00;;;;;15.78;100.00;100646.34;4980054;28;45277;-79
2023/03/18 01:33:28;;;;;;;;;17.00;14.33;;;;;15.82;100.00;100648.50;4969328;28;46050;-78
2023/03/18 01:35:57;;;;;;;;;16.67;16.67;;;;;15.78;100.00;100649.91;4979140;28;45534;-79
2023/03/18 01:38:23;;;;;;;;;19.33;15.00;;;;;15.66;100.00;100628.63;4971189;28;45460;-78
2023/03/18 01:40:51;;;;;;;;;18.00;14.67;;;;;15.68;100.00;100641.09;4980243;28;45397;-78
2023/03/18 01:43:22;;;;;;;;;15.67;13.33;;;;;15.65;100.00;100625.03;4972330;28;46439;-78
2023/03/18 01:45:51;;;;;;;;;13.00;13.00;;;;;15.66;100.00;100632.22;4974199;28;45452;-78
2023/03/18 01:48:19;;;;;;;;;17.33;15.33;;;;;15.63;100.00;100642.69;4988769;28;45564;-78
2023/03/18 01:50:48;;;;;;;;;19.00;16.33;;;;;15.61;100.00;100644.75;4980666;28;45336;-78
2023/03/18 01:53:16;;;;;;;;;11.33;8.67;;;;;15.55;100.00;100625.31;4971346;28;46267;-78
2023/03/18 01:55:44;;;;;;;;;18.00;15.00;;;;;15.56;100.00;100637.09;4981513;28;45250;-78
2023/03/18 01:58:18;;;;;;;;;12.33;10.00;;;;;15.59;100.00;100636.72;4965539;28;45278;-78
2023/03/18 02:01:08;;;;;;;;;12.67;12.67;;;;;15.56;100.00;100628.88;5013222;28;45446;-77
2023/03/18 02:03:33;;;;;;;;;14.00;12.00;;;;;15.65;100.00;100640.59;4971763;28;45443;-78
2023/03/18 02:06:00;;;;;;;;;11.00;10.00;;;;;15.74;100.00;100647.72;4978949;28;45459;-78
2023/03/18 02:08:25;;;;;;;;;12.67;12.67;;;;;15.73;100.00;100638.66;4971516;28;45530;-78
2023/03/18 02:10:52;;;;;;;;;13.33;11.67;;;;;15.78;100.00;100629.91;4980451;28;45721;-78
2023/03/18 02:13:18;;;;;;;;;14.67;13.00;;;;;15.76;100.00;100627.34;4973947;28;45635;-78
2023/03/18 02:15:55;;;;;;;;;14.33;14.00;;;;;15.82;100.00;100636.69;4979448;28;45418;-78
2023/03/18 02:18:28;;;;;;;;;12.00;12.00;;;;;15.81;100.00;100626.78;4964692;28;45407;-78
2023/03/18 02:21:07;;;;;;;;;14.67;13.00;;;;;15.80;100.00;100633.28;4976183;28;45413;-78
2023/03/18 02:23:43;;;;;;;;;15.67;14.00;;;;;15.79;100.00;100643.38;4972357;28;47272;-78
2023/03/18 02:26:36;;;;;;;;;14.67;14.00;;;;;15.79;100.00;100648.00;4974600;28;45453;-77
2023/03/18 02:29:05;;;;;;;;;16.33;14.00;;;;;15.80;100.00;100644.25;4964750;28;45602;-77
2023/03/18 02:31:34;;;;;;;;;14.67;14.67;;;;;15.79;100.00;100637.91;4974938;28;45275;-77
2023/03/18 02:34:00;;;;;;;;;15.00;14.67;;;;;15.79;100.00;100637.06;4967203;28;45525;-79
2023/03/18 02:36:28;;;;;;;;;14.00;14.00;;;;;15.86;100.00;100646.22;4974971;28;45454;-79
2023/03/18 02:38:56;;;;;;;;;13.00;13.00;;;;;15.91;100.00;100641.06;5003479;28;45867;-78
2023/03/18 02:41:24;;;;;;;;;18.67;13.33;;;;;15.92;100.00;100637.31;4976148;28;45317;-77
2023/03/18 02:43:50;;;;;;;;;15.33;13.00;;;;;15.90;100.00;100634.75;4973293;28;45802;-78
2023/03/18 02:46:30;;;;;;;;;7.33;7.33;;;;;15.85;100.00;100633.59;4969615;28;45391;-77
2023/03/18 02:48:59;;;;;;;;;14.00;13.00;;;;;15.84;100.00;100631.91;4974989;28;45326;-78
2023/03/18 02:51:25;;;;;;;;;12.00;12.00;;;;;15.85;100.00;100645.38;4931591;28;1387646;-78
2023/03/18 02:53:54;;;;;;;;;8.33;8.33;;;;;15.88;100.00;100639.53;4973907;28;45519;-78
2023/03/18 02:56:20;;;;;;;;;8.67;8.67;;;;;15.94;100.00;100659.88;4975475;28;45360;-78
2023/03/18 02:58:45;;;;;;;;;10.00;10.00;;;;;15.94;100.00;100646.16;4971332;28;45230;-78
2023/03/18 03:01:11;;;;;;;;;11.00;10.00;;;;;15.92;100.00;100653.75;4977313;28;45431;-77
2023/03/18 03:03:37;;;;;;;;;10.33;7.33;;;;;15.88;100.00;100641.44;4971322;28;46440;-78
2023/03/18 03:06:03;;;;;;;;;9.67;8.67;;;;;15.92;100.00;100642.78;4978054;28;45257;-78
2023/03/18 03:08:29;;;;;;;;;11.67;9.33;;;;;16.04;100.00;100645.91;4970579;28;45258;-78
2023/03/18 03:10:55;;;;;;;;;10.67;10.67;;;;;16.07;100.00;100651.84;4973934;28;45333;-77
2023/03/18 03:13:21;;;;;;;;;11.00;9.67;;;;;16.08;100.00;100639.00;4975328;28;46882;-78
2023/03/18 03:15:48;;;;;;;;;9.67;8.00;;;;;16.13;100.00;100648.41;4963060;28;45736;-78
2023/03/18 03:18:15;;;;;;;;;8.00;8.00;;;;;16.05;100.00;100644.88;4963563;28;45427;-77
2023/03/18 03:20:42;;;;;;;;;12.00;10.00;;;;;15.98;100.00;100647.50;4974611;28;45274;-77
2023/03/18 03:23:11;;;;;;;;;10.00;9.00;;;;;16.15;100.00;100670.09;4951070;28;47143;-78
2023/03/18 03:25:37;;;;;;;;;7.33;7.00;;;;;16.17;100.00;100657.06;4959795;28;45555;-77
2023/03/18 03:28:04;;;;;;;;;8.00;7.00;;;;;16.14;100.00;100647.34;4967789;28;45308;-78
2023/03/18 03:30:30;;;;;;;;;9.00;8.33;;;;;16.18;100.00;100661.53;4990779;28;45356;-77
2023/03/18 03:32:56;;;;;;;;;10.33;8.00;;;;;16.12;100.00;100654.06;4960417;28;48085;-78
2023/03/18 03:35:23;;;;;;;;;13.00;9.33;;;;;15.99;100.00;100664.81;4970715;28;45229;-78
2023/03/18 03:37:49;;;;;;;;;9.33;7.33;;;;;15.92;100.00;100667.44;4968859;28;45181;-77
2023/03/18 03:40:17;;;;;;;;;9.67;8.00;;;;;15.90;100.00;100667.63;4976130;28;45252;-78
2023/03/18 03:42:44;;;;;;;;;8.33;7.00;;;;;15.85;100.00;100658.25;4969783;28;45439;-78
2023/03/18 03:45:11;;;;;;;;;20.00;18.33;;;;;15.84;100.00;100656.56;5001104;28;45325;-78
2023/03/18 03:47:37;;;;;;;;;6.33;5.67;;;;;15.88;100.00;100664.19;4972183;28;45384;-78
2023/03/18 03:50:03;;;;;;;;;7.00;7.00;;;;;15.80;100.00;100653.31;4976877;28;45514;-77
2023/03/18 03:52:28;;;;;;;;;7.67;6.67;;;;;15.89;100.00;100665.06;4974434;28;45344;-78
2023/03/18 03:54:55;;;;;;;;;9.33;8.00;;;;;15.88;100.00;100669.69;4977818;28;45324;-77
2023/03/18 03:57:23;;;;;;;;;8.00;8.00;;;;;15.87;100.00;100681.69;4965906;28;45427;-78
2023/03/18 03:59:49;;;;;;;;;7.00;7.00;;;;;15.78;100.00;100663.59;4980669;28;45471;-78
2023/03/18 04:02:15;;;;;;;;;6.33;6.00;;;;;15.78;100.00;100674.56;4968443;28;46380;-78
2023/03/18 04:04:40;;;;;;;;;7.00;6.00;;;;;15.83;100.00;100674.03;4976909;28;45185;-78
2023/03/18 04:07:06;;;;;;;;;10.67;10.67;;;;;15.62;100.00;100668.38;4971786;28;45340;-78
2023/03/18 04:09:33;;;;;;;;;8.33;8.33;;;;;15.65;100.00;100679.81;4976642;28;45471;-77
2023/03/18 04:11:59;;;;;;;;;9.67;8.33;;;;;15.75;100.00;100676.81;5003147;28;47935;-77
2023/03/18 04:14:24;;;;;;;;;11.67;7.67;;;;;15.72;100.00;100679.91;4975819;28;45161;-77
2023/03/18 04:16:49;;;;;;;;;10.33;8.67;;;;;15.64;100.00;100672.63;4973906;28;45930;-77
2023/03/18 04:19:16;;;;;;;;;8.33;6.00;;;;;15.48;100.00;100673.59;4965582;28;45486;-78
2023/03/18 04:21:42;;;;;;;;;5.00;5.00;;;;;15.52;100.00;100674.06;5007263;28;47229;-78
2023/03/18 04:24:09;;;;;;;;;6.00;6.00;;;;;15.31;100.00;100671.97;4953006;28;45364;-80
2023/03/18 04:26:35;;;;;;;;;7.00;5.00;;;;;15.52;100.00;100683.13;4974237;28;45328;-78
2023/03/18 04:29:00;;;;;;;;;7.33;7.33;;;;;15.62;100.00;100679.34;4967612;28;45253;-78
2023/03/18 04:31:26;;;;;;;;;7.67;6.00;;;;;15.73;100.00;100687.09;4973613;28;47988;-78
2023/03/18 04:33:51;;;;;;;;;5.67;5.67;;;;;15.73;100.00;100673.41;4968367;28;45229;-78
2023/03/18 04:36:16;;;;;;;;;6.00;6.00;;;;;15.69;100.00;100666.59;4975625;28;45328;-78
2023/03/18 04:38:42;;;;;;;;;8.00;6.67;;;;;15.73;100.00;100676.16;4970024;28;45182;-78
2023/03/18 04:41:07;;;;;;;;;5.33;5.33;;;;;15.79;100.00;100669.94;5008863;28;45714;-81
2023/03/18 04:43:33;;;;;;;;;8.33;6.33;;;;;15.81;100.00;100673.34;4971351;28;45412;-79
2023/03/18 04:45:58;;;;;;;;;5.00;5.00;;;;;15.82;100.00;100664.09;4971137;28;46171;-79
2023/03/18 04:48:24;;;;;;;;;6.67;5.33;;;;;15.81;100.00;100665.13;4972321;28;45434;-78
2023/03/18 04:50:49;;;;;;;;;5.00;5.00;;;;;15.79;100.00;100672.66;4977971;28;47008;-79
2023/03/18 04:53:15;;;;;;;;;5.00;4.33;;;;;15.84;100.00;100678.47;4995575;28;45423;-81
2023/03/18 04:55:42;;;;;;;;;4.67;4.00;;;;;15.78;100.00;100654.56;4978883;28;45464;-80
2023/03/18 04:58:08;;;;;;;;;5.67;4.67;;;;;15.89;100.00;100670.53;4995231;28;45484;-78
2023/03/18 05:00:33;;;;;;;;;6.00;5.67;;;;;15.83;100.00;100674.03;4981659;28;46120;-79
2023/03/18 05:03:00;;;;;;;;;7.67;7.00;;;;;15.87;100.00;100678.09;4964859;28;45421;-81
2023/03/18 05:05:25;;;;;;;;;6.67;6.67;;;;;15.79;100.00;100679.00;4959190;28;45163;-80
2023/03/18 05:07:51;;;;;;;;;8.00;8.00;;;;;15.71;100.00;100675.47;4964270;28;45514;-79
2023/03/18 05:10:17;;;;;;;;;6.67;6.67;;;;;15.71;100.00;100679.06;4980511;28;47027;-79
2023/03/18 05:12:43;;;;;;;;;8.33;6.00;;;;;15.62;100.00;100674.72;4965063;28;45337;-79
2023/03/18 05:15:08;;;;;;;;;6.67;6.00;;;;;15.55;100.00;100665.53;4981599;28;50765;-80
2023/03/18 05:17:34;;;;;;;;;6.67;6.00;;;;;15.54;100.00;100681.09;4966369;28;45453;-80
2023/03/18 05:19:59;;;;;;;;;10.67;10.67;;;;;15.25;100.00;100656.28;4968922;28;45365;-81
2023/03/18 05:22:25;;;;;;;;;12.00;10.33;;;;;15.26;100.00;100652.50;4960409;28;45387;-80
2023/03/18 05:24:50;;;;;;;;;9.67;9.67;;;;;15.31;100.00;100663.75;4972218;28;45307;-80
2023/03/18 05:27:18;;;;;;;;;8.00;8.00;;;;;15.23;100.00;100661.06;4969698;28;45638;-81
2023/03/18 05:29:44;;;;;;;;;10.33;10.33;;;;;15.15;100.00;100666.59;4982223;28;47227;-81
2023/03/18 05:32:11;;;;;;;;;10.00;8.00;;;;;15.20;100.00;100672.38;4966408;28;45447;-81
2023/03/18 05:34:38;;;;;;;;;13.00;10.33;;;;;15.13;100.00;100660.44;4976690;28;45465;-79
2023/03/18 05:37:05;;;;;;;;;9.00;7.33;;;;;15.08;100.00;100662.88;5003476;28;45521;-80
2023/03/18 05:39:32;;;;;;;;;10.67;9.67;;;;;15.11;100.00;100666.13;4981019;28;46968;-80
2023/03/18 05:41:57;;;;;;;;;9.33;9.33;;;;;15.05;100.00;100653.13;4973844;28;45884;-80
2023/03/18 05:44:23;;;;;;;;;11.67;10.33;;;;;15.03;100.00;100663.41;4996349;28;45344;-80
2023/03/18 05:46:51;;;;;;;;;7.00;6.00;;;;;14.84;100.00;100644.69;4975015;28;46817;-79
2023/03/18 05:49:16;;;;;;;;;6.00;5.00;;;;;14.93;100.00;100660.03;4978278;28;48048;-80
2023/03/18 05:51:42;;;;;;;;;7.33;7.33;;;;;14.82;100.00;100651.41;5005883;28;45526;-79
2023/03/18 05:54:08;;;;;;;;;6.67;6.67;;;;;14.76;100.00;100648.31;5014260;28;45469;-79
2023/03/18 05:56:33;;;;;;;;;7.33;7.33;;;;;14.77;100.00;100652.75;4972787;28;45420;-79
2023/03/18 05:58:59;;;;;;;;;6.67;6.67;;;;;14.56;100.00;100616.97;4979604;28;46072;-79
2023/03/18 06:01:24;;;;;;;;;10.33;9.00;;;;;14.80;100.00;100660.63;4975668;28;45416;-79
2023/03/18 06:03:50;;;;;;;;;9.00;9.00;;;;;14.79;100.00;100661.66;4972203;28;45862;-80
2023/03/18 06:06:16;;;;;;;;;10.00;8.67;;;;;14.69;100.00;100650.06;4974609;28;45468;-80
2023/03/18 06:08:42;;;;;;;;;11.67;10.00;;;;;14.78;100.00;100668.16;5004509;28;48058;-80
2023/03/18 06:11:07;;;;;;;;;9.33;9.00;;;;;14.74;100.00;100663.22;4979225;28;45437;-80
2023/03/18 06:13:32;;;;;;;;;12.33;11.00;;;;;14.72;100.00;100657.91;4997267;28;45555;-82
2023/03/18 06:15:59;;;;;;;;;18.33;14.67;;;;;14.69;100.00;100660.16;4975896;28;45580;-78
2023/03/18 06:18:25;;;;;;;;;11.00;11.00;;;;;14.67;100.00;100668.56;4967671;28;45629;-79
2023/03/18 06:20:50;;;;;;;;;16.00;14.00;;;;;14.79;100.00;100675.31;4976598;28;45225;-80
2023/03/18 06:23:17;;;;;;;;;12.00;11.00;;;;;14.77;100.00;100651.91;4975693;28;45565;-80
2023/03/18 06:25:42;;;;;;;;;11.67;11.33;;;;;14.89;100.00;100671.53;4979479;28;45381;-80
2023/03/18 06:28:08;;;;;;;;;13.00;11.67;;;;;14.90;100.00;100659.56;4985328;28;47459;-81
2023/03/18 06:30:33;;;;;;;;;12.33;10.67;;;;;14.90;100.00;100682.31;4979710;28;45320;-81
2023/03/18 06:32:59;;;;;;;;;12.33;7.67;;;;;14.91;100.00;100666.72;4947785;28;45487;-79
2023/03/18 06:35:28;;;;;;;;;10.33;10.33;;;;;15.00;100.00;100673.84;4973859;28;45263;-80
2023/03/18 06:37:55;;;;;;;;;10.00;10.00;;;;;14.98;100.00;100678.66;4966970;28;45782;-80
2023/03/18 06:40:21;;;;;;;;;10.00;10.00;;;;;14.71;100.00;100666.31;5003503;28;45375;-80
2023/03/18 06:42:46;;;;;;;;;8.33;6.33;;;;;14.93;100.00;100681.94;4968058;28;45424;-79
2023/03/18 06:45:12;;;;;;;;;9.00;9.00;;;;;14.96;100.00;100687.06;4999270;28;45189;-79
2023/03/18 06:47:38;;;;;;;;;9.67;7.00;;;;;15.02;100.00;100701.91;4967632;28;46341;-78
2023/03/18 06:50:04;;;;;;;;;10.00;10.00;;;;;14.71;100.00;100697.22;4973032;28;45332;-79
2023/03/18 06:52:30;;;;;;;;;12.00;10.00;;;;;14.61;100.00;100693.00;4968687;28;45456;-79
2023/03/18 06:54:55;;;;;;;;;11.33;10.33;;;;;14.58;100.00;100679.69;4975670;28;45435;-80
2023/03/18 06:57:21;;;;;;;;;5.67;5.67;;;;;14.70;100.00;100681.84;4968847;28;46164;-80
2023/03/18 06:59:46;;;;;;;;;9.67;9.67;;;;;14.76;100.00;100686.59;4975632;28;45443;-79
2023/03/18 07:02:12;;;;;;;;;10.00;10.00;;;;;14.79;100.00;100689.00;4970291;28;45456;-79
2023/03/18 07:04:38;;;;;;;;;10.33;10.33;;;;;14.98;100.00;100700.53;4977162;28;45693;-80
2023/03/18 07:07:04;;;;;;;;;7.00;7.00;;;;;15.07;100.00;100691.25;4972032;28;45464;-79
2023/03/18 07:09:30;;;;;;;;;6.67;6.67;;;;;15.29;100.00;100684.97;4977799;28;45293;-79
2023/03/18 07:11:55;;;;;;;;;7.00;7.00;;;;;15.44;100.00;100688.66;4971130;28;45717;-79
2023/03/18 07:14:22;;;;;;;;;6.67;6.67;;;;;15.54;100.00;100691.19;4966079;28;45445;-79
2023/03/18 07:16:47;;;;;;;;;5.67;5.67;;;;;15.59;100.00;100683.28;5007386;28;47085;-76
2023/03/18 07:19:14;;;;;;;;;6.00;6.00;;;;;15.76;100.00;100697.72;4952982;28;45358;-76
2023/03/18 07:21:41;;;;;;;;;6.67;6.67;;;;;15.83;100.00;100693.19;5008188;28;45341;-76
2023/03/18 07:24:07;;;;;;;;;8.00;7.00;;;;;15.65;100.00;100711.81;4963769;28;45580;-76
2023/03/18 07:26:33;;;;;;;;;6.00;4.00;;;;;15.47;100.00;100707.47;4975430;28;45316;-76
2023/03/18 07:28:58;;;;;;;;;6.00;5.67;;;;;15.66;100.00;100705.31;4969257;28;45496;-78
2023/03/18 07:31:24;;;;;;;;;5.00;5.00;;;;;15.51;100.00;100705.19;4973679;28;45261;-75
2023/03/18 07:33:50;;;;;;;;;6.33;5.00;;;;;15.93;100.00;100719.28;4970973;28;45411;-76
2023/03/18 07:36:16;;;;;;;;;3.33;3.33;;;;;16.06;100.00;100715.94;4974662;28;47068;-78
2023/03/18 07:38:41;;;;;;;;;4.33;4.33;;;;;16.18;100.00;100713.59;4957778;28;46331;-76
2023/03/18 07:41:07;;;;;;;;;4.00;4.00;;;;;16.22;100.00;100712.19;4979181;28;45376;-76
2023/03/18 07:43:32;;;;;;;;;3.67;3.67;;;;;16.38;100.00;100717.50;4964710;28;45569;-76
2023/03/18 07:45:58;;;;;;;;;5.67;5.33;;;;;16.46;100.00;100709.22;4963760;28;45488;-76
2023/03/18 07:48:24;;;;;;;;;3.67;3.67;;;;;16.69;100.00;100731.13;4964075;28;45318;-76
2023/03/18 07:50:49;;;;;;;;;4.00;4.00;;;;;16.64;100.00;100725.34;4963242;28;45392;-76
2023/03/18 07:53:15;;;;;;;;;4.33;4.33;;;;;16.44;100.00;100704.97;4967073;28;45666;-76
2023/03/18 07:55:41;;;;;;;;;6.33;4.00;;;;;16.42;100.00;100712.53;4980973;28;46111;-76
2023/03/18 07:58:07;;;;;;;;;5.67;5.00;;;;;16.58;100.00;100723.34;4973786;28;45350;-77
2023/03/18 08:00:33;;;;;;;;;5.00;3.00;;;;;16.61;100.00;100714.75;4983540;28;45363;-77
2023/03/18 08:02:58;;;;;;;;;5.00;4.00;;;;;16.93;100.00;100722.59;4968449;28;45305;-77
2023/03/18 08:05:24;;;;;;;;;3.00;3.00;;;;;17.24;100.00;100721.53;4982598;28;45402;-76
2023/03/18 08:07:49;;;;;;;;;2.67;2.67;;;;;17.22;100.00;100704.38;4966287;28;45369;-77
2023/03/18 08:10:15;;;;;;;;;4.00;4.00;;;;;16.87;100.00;100720.63;4982825;28;45317;-75
2023/03/18 08:12:41;;;;;;;;;2.00;2.00;;;;;16.73;100.00;100718.72;4968216;28;45166;-75
2023/03/18 08:15:08;;;;;;;;;3.00;3.00;;;;;17.33;100.00;100721.22;4968683;28;45271;-75
2023/03/18 08:17:33;;;;;;;;;3.33;2.00;;;;;17.96;100.00;100722.34;4971078;28;45369;-75
2023/03/18 08:19:59;;;;;;;;;4.33;4.00;;;;;18.00;100.00;100712.66;4978794;28;46432;-75
2023/03/18 08:22:24;;;;;;;;;3.00;3.00;;;;;17.94;100.00;100729.94;4968599;28;45685;-74
2023/03/18 08:24:50;;;;;;;;;4.00;4.00;;;;;18.24;100.00;100715.00;4961906;28;47440;-74
2023/03/18 08:27:16;;;;;;;;;5.33;3.67;;;;;18.69;100.00;100725.72;4969183;28;45459;-75
2023/03/18 08:29:41;;;;;;;;;4.33;4.00;;;;;19.22;100.00;100735.97;4969001;28;45383;-74
2023/03/18 08:32:07;;;;;;;;;4.33;4.33;;;;;19.22;100.00;100724.94;4968153;28;45443;-74
2023/03/18 08:34:32;;;;;;;;;2.00;2.00;;;;;19.31;100.00;100733.88;4968153;28;45596;-75
2023/03/18 08:36:58;;;;;;;;;3.33;3.33;;;;;19.43;100.00;100721.22;4970489;28;45544;-74
2023/03/18 08:39:23;;;;;;;;;4.00;4.00;;;;;19.50;100.00;100715.78;4961889;28;49314;-74
2023/03/18 08:41:49;;;;;;;;;4.67;4.00;;;;;19.44;100.00;100723.75;4969099;28;45428;-74
2023/03/18 08:44:15;;;;;;;;;5.67;4.33;;;;;19.53;100.00;100731.88;4962412;28;47949;-75
2023/03/18 08:46:40;;;;;;;;;5.00;5.00;;;;;19.67;100.00;100719.81;4961248;28;45381;-75
2023/03/18 08:49:09;;;;;;;;;5.33;5.33;;;;;19.48;100.00;100712.38;4964811;28;45314;-75
2023/03/18 08:51:35;;;;;;;;;4.00;4.00;;;;;19.70;100.00;100711.16;4968922;28;45557;-74
2023/03/18 08:54:00;;;;;;;;;4.33;4.00;;;;;20.06;100.00;100719.06;4963566;28;48260;-75
2023/03/18 08:56:26;;;;;;;;;2.67;2.67;;;;;20.22;100.00;100704.84;4967033;28;45367;-74
2023/03/18 08:58:51;;;;;;;;;4.00;4.00;;;;;20.41;100.00;100709.53;4960366;28;45459;-74
2023/03/18 09:01:20;;;;;;;;;29.50;29.00;;;;;20.59;100.00;100703.38;4967655;28;45499;-75
2023/03/18 09:03:46;;;;;;;;;6.33;5.00;;;;;20.85;100.00;100700.53;4970482;28;45522;-76
2023/03/18 09:06:11;;;;;;;;;3.67;3.67;;;;;20.98;100.00;100706.03;4971887;28;45435;-75
2023/03/18 09:08:38;;;;;;;;;3.00;3.00;;;;;21.03;100.00;100707.28;5008008;28;45491;-75
2023/03/18 09:11:04;;;;;;;;;2.33;2.33;;;;;20.84;100.00;100698.84;4980509;28;45340;-74
2023/03/18 09:13:29;;;;;;;;;4.00;4.00;;;;;21.15;100.00;100698.09;4966192;28;46360;-76
2023/03/18 09:15:54;;;;;;;;;4.00;4.00;;;;;21.01;100.00;100698.38;4976132;28;45482;-74
2023/03/18 09:18:21;;;;;;;;;4.33;4.33;;;;;20.83;100.00;100707.34;4969231;28;45460;-76
2023/03/18 09:20:47;;;;;;;;;5.67;5.67;;;;;20.94;100.00;100710.28;4976894;28;45406;-74
2023/03/18 09:23:14;;;;;;;;;7.00;7.00;;;;;21.44;100.00;100712.47;4967133;28;45635;-74
2023/03/18 09:25:43;;;;;;;;;5.00;5.00;;;;;21.58;100.00;100712.16;4980266;28;45319;-74
2023/03/18 09:28:09;;;;;;;;;6.00;6.00;;;;;21.73;100.00;100712.72;4985971;28;45407;-76
2023/03/18 09:30:34;;;;;;;;;8.33;7.00;;;;;21.43;100.00;100717.13;4977974;28;45269;-75
2023/03/18 09:33:00;;;;;;;;;2.00;2.00;;;;;20.88;100.00;100719.44;4964081;28;47387;-76
2023/03/18 09:35:27;;;;;;;;;3.00;3.00;;;;;20.25;100.00;100709.94;5009017;28;45351;-76
2023/03/18 09:37:53;;;;;;;;;6.00;5.00;;;;;20.73;100.00;100701.44;4972564;28;45351;-76
2023/03/18 09:40:34;;;;;;;;;5.00;4.00;;;;;20.74;100.00;100703.13;4965544;28;45439;-76
2023/03/18 09:43:24;;;;;;;;;5.33;5.33;;;;;21.19;100.00;100710.44;4973352;28;45455;-76
2023/03/18 09:46:08;;;;;;;;;7.67;5.33;;;;;21.99;100.00;100706.19;4975513;28;45503;-75
2023/03/18 09:48:36;;;;;;;;;5.67;5.67;;;;;22.14;100.00;100694.78;4967538;28;45352;-76
2023/03/18 09:51:29;;;;;;;;;4.00;4.00;;;;;22.33;100.00;100695.72;4980272;28;45335;-76
2023/03/18 09:54:06;;;;;;;;;6.67;6.00;;;;;22.38;100.00;100696.72;5003918;28;47359;-74
2023/03/18 09:56:35;;;;;;;;;3.00;3.00;;;;;22.79;100.00;100698.06;4973686;28;45344;-76
2023/03/18 09:59:46;;;;;;;;;4.67;4.00;;;;;23.15;100.00;100703.63;4973105;28;45364;-76
2023/03/18 10:02:20;;;;;;;;;5.00;4.00;;;;;22.84;100.00;100695.44;4976802;28;45542;-76
2023/03/18 10:04:52;;;;;;;;;4.00;2.00;;;;;22.88;100.00;100704.97;4979229;28;45976;-76
2023/03/18 10:07:21;;;;;;;;;3.33;2.00;;;;;22.28;100.00;100712.16;4975192;28;45493;-76
2023/03/18 10:10:09;;;;;;;;;4.00;3.67;;;;;22.43;100.00;100691.34;4980298;28;45437;-76
2023/03/18 10:12:40;;;;;;;;;7.00;5.00;;;;;23.00;100.00;100705.06;4969828;28;45432;-76
2023/03/18 10:15:14;;;;;;;;;2.00;2.00;;;;;22.47;100.00;100692.59;4972495;28;45625;-75
2023/03/18 10:17:58;;;;;;;;;4.33;3.67;;;;;22.06;100.00;100698.69;4963727;28;45525;-76
2023/03/18 10:20:36;;;;;;;;;7.00;4.00;;;;;22.95;100.00;100696.59;4975569;28;45387;-75
2023/03/18 10:23:09;;;;;;;;;4.33;4.00;;;;;23.06;100.00;100684.75;4960585;28;45762;-75
2023/03/18 10:25:52;;;;;;;;;4.00;2.50;;;;;22.94;100.00;100703.22;4980523;28;48151;-76
2023/03/18 10:28:29;;;;;;;;;3.00;2.67;;;;;22.82;100.00;100709.53;4968784;28;45475;-75
2023/03/18 10:31:21;;;;;;;;;6.00;2.00;;;;;22.94;100.00;100692.97;4978277;28;45347;-75
2023/03/18 10:33:58;;;;;;;;;2.33;1.67;;;;;22.63;100.00;100705.00;4973984;28;45533;-76
2023/03/18 10:36:35;;;;;;;;;3.00;3.00;;;;;22.37;100.00;100702.47;4974249;28;47110;-75
2023/03/18 10:39:02;;;;;;;;;2.33;1.33;;;;;22.07;100.00;100718.91;4974571;28;45432;-76
2023/03/18 10:41:33;;;;;;;;;2.67;1.67;;;;;21.42;100.00;100718.19;4976375;28;45437;-74
2023/03/18 10:44:02;;;;;;;;;2.00;2.00;;;;;20.07;100.00;100716.09;4977694;28;45316;-76
2023/03/18 10:46:29;;;;;;;;;7.33;2.00;;;;;20.41;100.00;100712.28;4970323;28;45797;-74
2023/03/18 10:49:06;;;;;;;;;1.00;1.00;;;;;20.69;100.00;100717.56;4951205;28;45433;-74
2023/03/18 10:51:53;;;;;;;;;2.00;2.00;;;;;20.87;100.00;100712.22;4962687;28;45491;-74
2023/03/18 10:54:37;;;;;;;;;1.67;1.67;;;;;21.04;100.00;100712.56;4974662;28;45553;-74
2023/03/18 10:57:02;;;;;;;;;2.00;0.00;;;;;21.53;100.00;100700.94;4974218;28;45454;-74
2023/03/18 10:59:29;;;;;;;;;1.33;1.33;;;;;22.01;100.00;100683.84;5007192;28;45595;-75
2023/03/18 11:02:03;;;;;;;;;2.33;2.00;;;;;22.52;100.00;100697.44;4976319;28;45513;-75
2023/03/18 11:04:35;;;;;;;;;4.33;3.00;;;;;22.73;99.89;100688.72;4975067;28;45492;-75
2023/03/18 11:07:04;;;;;;;;;2.67;2.00;;;;;22.90;96.93;100708.38;4960861;28;48025;-75
2023/03/18 11:09:33;;;;;;;;;2.33;1.00;;;;;22.66;94.29;100695.38;4991176;28;45675;-75
2023/03/18 11:12:05;;;;;;;;;3.00;3.00;;;;;22.78;97.38;100704.69;4961990;28;45440;-75
2023/03/18 11:14:32;;;;;;;;;2.00;2.00;;;;;22.37;95.11;100695.00;4961919;28;45218;-75